sensor_id;sensor_type;location;lat;lon;timestamp;pressure;altitude;pressure_sealevel;temperature;humidity
40592;BME280;26301;42.832;23.918;2023-04-07T00:01:16;92839.34;;;-0.23;76.62
40592;BME280;26301;42.832;23.918;2023-04-07T00:03:41;92832.44;;;-0.29;76.30
40592;BME280;26301;42.832;23.918;2023-04-07T00:06:08;92830.84;;;-0.30;75.66
40592;BME280;26301;42.832;23.918;2023-04-07T00:08:34;92838.03;;;-0.34;76.91
40592;BME280;26301;42.832;23.918;2023-04-07T00:10:59;92839.16;;;-0.36;77.71
40592;BME280;26301;42.832;23.918;2023-04-07T00:13:25;92840.84;;;-0.43;78.11
40592;BME280;26301;42.832;23.918;2023-04-07T00:15:50;92825.53;;;-0.65;79.35
40592;BME280;26301;42.832;23.918;2023-04-07T00:18:16;92832.81;;;-0.62;79.04
40592;BME280;26301;42.832;23.918;2023-04-07T00:20:41;92816.44;;;-0.74;78.40
40592;BME280;26301;42.832;23.918;2023-04-07T00:23:06;92824.91;;;-0.67;78.30
40592;BME280;26301;42.832;23.918;2023-04-07T00:25:32;92824.66;;;-0.72;78.41
40592;BME280;26301;42.832;23.918;2023-04-07T00:27:57;92802.00;;;-0.88;78.29
40592;BME280;26301;42.832;23.918;2023-04-07T00:30:23;92825.03;;;-0.75;78.76
40592;BME280;26301;42.832;23.918;2023-04-07T00:32:49;92828.50;;;-0.76;78.74
40592;BME280;26301;42.832;23.918;2023-04-07T00:35:16;92813.09;;;-0.89;78.91
40592;BME280;26301;42.832;23.918;2023-04-07T00:37:41;92825.53;;;-0.80;78.56
40592;BME280;26301;42.832;23.918;2023-04-07T00:40:07;92813.63;;;-0.94;78.72
40592;BME280;26301;42.832;23.918;2023-04-07T00:42:33;92795.78;;;-1.01;78.84
40592;BME280;26301;42.832;23.918;2023-04-07T00:45:00;92814.66;;;-0.88;78.89
40592;BME280;26301;42.832;23.918;2023-04-07T00:47:27;92805.84;;;-0.93;79.07
40592;BME280;26301;42.832;23.918;2023-04-07T00:49:52;92804.53;;;-0.88;80.02
40592;BME280;26301;42.832;23.918;2023-04-07T00:52:18;92828.69;;;-0.78;79.88
40592;BME280;26301;42.832;23.918;2023-04-07T00:54:52;92804.19;;;-0.85;80.65
40592;BME280;26301;42.832;23.918;2023-04-07T00:57:18;92824.81;;;-0.74;80.93
40592;BME280;26301;42.832;23.918;2023-04-07T00:59:43;92813.00;;;-0.81;80.78
40592;BME280;26301;42.832;23.918;2023-04-07T01:02:22;92821.59;;;-0.67;80.94
40592;BME280;26301;42.832;23.918;2023-04-07T01:07:34;92805.84;;;-0.78;80.45
40592;BME280;26301;42.832;23.918;2023-04-07T01:10:05;92798.31;;;-0.86;80.92
40592;BME280;26301;42.832;23.918;2023-04-07T01:15:26;92819.84;;;-0.82;81.54
40592;BME280;26301;42.832;23.918;2023-04-07T01:17:59;92815.53;;;-0.81;81.48
40592;BME280;26301;42.832;23.918;2023-04-07T01:20:27;92801.22;;;-0.89;81.36
40592;BME280;26301;42.832;23.918;2023-04-07T01:22:56;92807.00;;;-0.80;81.24
40592;BME280;26301;42.832;23.918;2023-04-07T01:30:46;92806.91;;;-0.87;80.45
40592;BME280;26301;42.832;23.918;2023-04-07T01:33:13;92803.22;;;-0.99;81.91
40592;BME280;26301;42.832;23.918;2023-04-07T01:35:40;92782.03;;;-1.21;81.87
40592;BME280;26301;42.832;23.918;2023-04-07T01:38:08;92786.84;;;-1.26;82.17
40592;BME280;26301;42.832;23.918;2023-04-07T01:40:36;92800.38;;;-1.19;81.70
40592;BME280;26301;42.832;23.918;2023-04-07T01:43:03;92800.31;;;-1.11;81.48
40592;BME280;26301;42.832;23.918;2023-04-07T01:45:33;92784.66;;;-1.29;81.42
40592;BME280;26301;42.832;23.918;2023-04-07T01:48:00;92796.16;;;-1.27;80.55
40592;BME280;26301;42.832;23.918;2023-04-07T01:50:26;92804.31;;;-1.17;80.86
40592;BME280;26301;42.832;23.918;2023-04-07T01:52:53;92800.97;;;-1.32;80.63
40592;BME280;26301;42.832;23.918;2023-04-07T01:55:19;92807.25;;;-1.28;80.87
40592;BME280;26301;42.832;23.918;2023-04-07T01:57:45;92797.31;;;-1.29;81.58
40592;BME280;26301;42.832;23.918;2023-04-07T02:00:11;92784.09;;;-1.40;83.12
40592;BME280;26301;42.832;23.918;2023-04-07T02:02:41;92802.53;;;-1.31;82.98
40592;BME280;26301;42.832;23.918;2023-04-07T02:05:11;92790.91;;;-1.40;83.19
40592;BME280;26301;42.832;23.918;2023-04-07T02:08:03;92799.28;;;-1.40;82.60
40592;BME280;26301;42.832;23.918;2023-04-07T02:10:31;92779.84;;;-1.62;83.40
40592;BME280;26301;42.832;23.918;2023-04-07T02:12:59;92807.19;;;-1.57;83.93
40592;BME280;26301;42.832;23.918;2023-04-07T02:15:26;92792.03;;;-1.66;84.19
40592;BME280;26301;42.832;23.918;2023-04-07T02:17:53;92787.97;;;-1.75;84.46
40592;BME280;26301;42.832;23.918;2023-04-07T02:20:21;92795.88;;;-1.70;84.54
40592;BME280;26301;42.832;23.918;2023-04-07T02:22:48;92796.66;;;-1.69;84.74
40592;BME280;26301;42.832;23.918;2023-04-07T02:25:39;92798.41;;;-1.70;84.54
40592;BME280;26301;42.832;23.918;2023-04-07T02:28:05;92797.44;;;-1.69;84.28
40592;BME280;26301;42.832;23.918;2023-04-07T02:30:31;92772.34;;;-1.78;84.15
40592;BME280;26301;42.832;23.918;2023-04-07T02:32:57;92773.94;;;-1.77;83.90
40592;BME280;26301;42.832;23.918;2023-04-07T02:35:23;92785.94;;;-1.71;83.94
40592;BME280;26301;42.832;23.918;2023-04-07T02:37:49;92784.66;;;-1.75;83.53
40592;BME280;26301;42.832;23.918;2023-04-07T02:40:15;92795.25;;;-1.72;83.09
40592;BME280;26301;42.832;23.918;2023-04-07T02:42:41;92797.00;;;-1.72;82.96
40592;BME280;26301;42.832;23.918;2023-04-07T02:45:08;92787.19;;;-1.75;82.76
40592;BME280;26301;42.832;23.918;2023-04-07T02:47:35;92793.38;;;-1.78;82.89
40592;BME280;26301;42.832;23.918;2023-04-07T02:50:01;92791.66;;;-1.77;82.77
40592;BME280;26301;42.832;23.918;2023-04-07T02:52:26;92777.41;;;-2.01;83.18
40592;BME280;26301;42.832;23.918;2023-04-07T02:54:52;92795.25;;;-1.95;83.25
40592;BME280;26301;42.832;23.918;2023-04-07T02:57:18;92798.03;;;-1.90;83.75
40592;BME280;26301;42.832;23.918;2023-04-07T02:59:44;92794.47;;;-1.95;83.75
40592;BME280;26301;42.832;23.918;2023-04-07T03:02:10;92779.53;;;-2.13;83.47
40592;BME280;26301;42.832;23.918;2023-04-07T03:04:36;92783.78;;;-2.14;84.53
40592;BME280;26301;42.832;23.918;2023-04-07T03:07:01;92788.25;;;-2.16;85.17
40592;BME280;26301;42.832;23.918;2023-04-07T03:09:27;92785.69;;;-2.08;84.67
40592;BME280;26301;42.832;23.918;2023-04-07T03:11:53;92796.19;;;-2.19;85.15
40592;BME280;26301;42.832;23.918;2023-04-07T03:14:18;92800.13;;;-2.16;85.73
40592;BME280;26301;42.832;23.918;2023-04-07T03:16:44;92793.19;;;-2.22;85.21
40592;BME280;26301;42.832;23.918;2023-04-07T03:19:09;92788.28;;;-2.24;85.54
40592;BME280;26301;42.832;23.918;2023-04-07T03:21:36;92793.34;;;-2.24;86.00
40592;BME280;26301;42.832;23.918;2023-04-07T03:24:08;92786.72;;;-2.25;86.13
40592;BME280;26301;42.832;23.918;2023-04-07T03:26:34;92754.56;;;-2.47;85.85
40592;BME280;26301;42.832;23.918;2023-04-07T03:28:59;92794.03;;;-2.38;86.08
40592;BME280;26301;42.832;23.918;2023-04-07T03:31:25;92775.31;;;-2.52;86.55
40592;BME280;26301;42.832;23.918;2023-04-07T03:33:51;92792.03;;;-2.43;86.58
40592;BME280;26301;42.832;23.918;2023-04-07T03:36:16;92773.72;;;-2.53;86.42
40592;BME280;26301;42.832;23.918;2023-04-07T03:38:43;92796.63;;;-2.46;86.15
40592;BME280;26301;42.832;23.918;2023-04-07T03:41:08;92777.06;;;-2.61;85.82
40592;BME280;26301;42.832;23.918;2023-04-07T03:43:34;92753.91;;;-2.81;85.47
40592;BME280;26301;42.832;23.918;2023-04-07T03:46:00;92781.81;;;-2.58;86.18
40592;BME280;26301;42.832;23.918;2023-04-07T03:48:26;92793.16;;;-2.54;85.14
40592;BME280;26301;42.832;23.918;2023-04-07T03:50:51;92803.41;;;-2.47;83.65
40592;BME280;26301;42.832;23.918;2023-04-07T03:53:17;92801.69;;;-2.46;82.84
40592;BME280;26301;42.832;23.918;2023-04-07T03:55:43;92779.72;;;-2.54;81.27
40592;BME280;26301;42.832;23.918;2023-04-07T03:58:09;92814.81;;;-2.20;77.84
40592;BME280;26301;42.832;23.918;2023-04-07T04:00:35;92792.06;;;-2.20;79.82
40592;BME280;26301;42.832;23.918;2023-04-07T04:03:01;92786.66;;;-2.17;78.42
40592;BME280;26301;42.832;23.918;2023-04-07T04:05:27;92797.03;;;-2.03;77.64
40592;BME280;26301;42.832;23.918;2023-04-07T04:07:53;92814.31;;;-1.84;78.88
40592;BME280;26301;42.832;23.918;2023-04-07T04:10:19;92831.22;;;-1.76;78.28
40592;BME280;26301;42.832;23.918;2023-04-07T04:12:46;92833.13;;;-1.78;78.82
40592;BME280;26301;42.832;23.918;2023-04-07T04:15:12;92826.47;;;-1.79;79.13
40592;BME280;26301;42.832;23.918;2023-04-07T04:17:38;92829.91;;;-1.72;79.23
40592;BME280;26301;42.832;23.918;2023-04-07T04:20:03;92835.09;;;-1.66;80.39
40592;BME280;26301;42.832;23.918;2023-04-07T04:22:29;92839.69;;;-1.69;78.41
40592;BME280;26301;42.832;23.918;2023-04-07T04:24:55;92816.34;;;-1.79;78.69
40592;BME280;26301;42.832;23.918;2023-04-07T04:27:21;92840.78;;;-1.64;79.45
40592;BME280;26301;42.832;23.918;2023-04-07T04:29:46;92848.03;;;-1.61;78.82
40592;BME280;26301;42.832;23.918;2023-04-07T04:32:13;92819.34;;;-1.76;79.28
40592;BME280;26301;42.832;23.918;2023-04-07T04:34:38;92848.78;;;-1.52;78.36
40592;BME280;26301;42.832;23.918;2023-04-07T04:37:06;92853.72;;;-1.35;77.98
40592;BME280;26301;42.832;23.918;2023-04-07T04:39:32;92857.09;;;-1.20;77.66
40592;BME280;26301;42.832;23.918;2023-04-07T04:41:58;92856.53;;;-1.07;78.89
40592;BME280;26301;42.832;23.918;2023-04-07T04:44:24;92830.88;;;-1.12;78.10
40592;BME280;26301;42.832;23.918;2023-04-07T04:46:49;92849.19;;;-0.87;78.55
40592;BME280;26301;42.832;23.918;2023-04-07T04:49:15;92840.13;;;-0.67;79.01
40592;BME280;26301;42.832;23.918;2023-04-07T04:51:43;92866.31;;;-0.37;78.33
40592;BME280;26301;42.832;23.918;2023-04-07T04:54:09;92868.41;;;-0.11;78.76
40592;BME280;26301;42.832;23.918;2023-04-07T04:56:34;92854.78;;;0.12;78.90
40592;BME280;26301;42.832;23.918;2023-04-07T04:59:01;92858.38;;;0.39;77.24
40592;BME280;26301;42.832;23.918;2023-04-07T05:01:27;92850.81;;;0.60;76.99
40592;BME280;26301;42.832;23.918;2023-04-07T05:03:53;92869.44;;;0.89;70.22
40592;BME280;26301;42.832;23.918;2023-04-07T05:06:19;92846.41;;;0.97;67.90
40592;BME280;26301;42.832;23.918;2023-04-07T05:08:45;92872.09;;;1.30;64.94
40592;BME280;26301;42.832;23.918;2023-04-07T05:11:11;92837.56;;;1.49;65.85
40592;BME280;26301;42.832;23.918;2023-04-07T05:13:36;92866.22;;;1.93;63.91
40592;BME280;26301;42.832;23.918;2023-04-07T05:16:02;92851.34;;;2.03;60.63
40592;BME280;26301;42.832;23.918;2023-04-07T05:18:28;92847.31;;;2.22;58.31
40592;BME280;26301;42.832;23.918;2023-04-07T05:20:53;92849.91;;;2.35;57.77
40592;BME280;26301;42.832;23.918;2023-04-07T05:23:19;92861.34;;;2.66;57.37
40592;BME280;26301;42.832;23.918;2023-04-07T05:25:45;92843.72;;;2.71;56.53
40592;BME280;26301;42.832;23.918;2023-04-07T05:28:10;92860.97;;;2.82;56.21
40592;BME280;26301;42.832;23.918;2023-04-07T05:30:36;92844.72;;;2.90;56.22
40592;BME280;26301;42.832;23.918;2023-04-07T05:33:01;92866.50;;;3.06;54.59
40592;BME280;26301;42.832;23.918;2023-04-07T05:35:27;92862.78;;;3.02;54.28
40592;BME280;26301;42.832;23.918;2023-04-07T05:37:52;92866.09;;;2.89;54.48
40592;BME280;26301;42.832;23.918;2023-04-07T05:40:18;92869.63;;;2.74;53.83
40592;BME280;26301;42.832;23.918;2023-04-07T05:42:44;92853.47;;;2.54;54.78
40592;BME280;26301;42.832;23.918;2023-04-07T05:45:10;92862.91;;;2.67;56.04
40592;BME280;26301;42.832;23.918;2023-04-07T05:47:36;92848.78;;;2.64;56.37
40592;BME280;26301;42.832;23.918;2023-04-07T05:50:01;92870.78;;;2.85;56.63
40592;BME280;26301;42.832;23.918;2023-04-07T05:52:27;92862.19;;;2.86;54.78
40592;BME280;26301;42.832;23.918;2023-04-07T05:54:52;92851.75;;;2.81;55.76
40592;BME280;26301;42.832;23.918;2023-04-07T05:57:18;92843.72;;;2.78;54.29
40592;BME280;26301;42.832;23.918;2023-04-07T05:59:44;92868.28;;;2.98;54.84
40592;BME280;26301;42.832;23.918;2023-04-07T06:02:10;92866.88;;;3.03;54.05
40592;BME280;26301;42.832;23.918;2023-04-07T06:04:35;92856.91;;;3.01;53.84
40592;BME280;26301;42.832;23.918;2023-04-07T06:07:01;92862.38;;;3.11;54.51
40592;BME280;26301;42.832;23.918;2023-04-07T06:09:27;92865.91;;;3.17;52.80
40592;BME280;26301;42.832;23.918;2023-04-07T06:11:53;92846.69;;;3.01;53.41
40592;BME280;26301;42.832;23.918;2023-04-07T06:14:18;92866.50;;;3.26;53.18
40592;BME280;26301;42.832;23.918;2023-04-07T06:16:45;92864.53;;;3.41;54.93
40592;BME280;26301;42.832;23.918;2023-04-07T06:19:10;92854.31;;;3.28;51.97
40592;BME280;26301;42.832;23.918;2023-04-07T06:21:36;92854.31;;;3.41;52.42
40592;BME280;26301;42.832;23.918;2023-04-07T06:24:01;92849.59;;;3.44;51.86
40592;BME280;26301;42.832;23.918;2023-04-07T06:26:27;92865.66;;;3.72;51.66
40592;BME280;26301;42.832;23.918;2023-04-07T06:28:53;92865.69;;;3.65;51.78
40592;BME280;26301;42.832;23.918;2023-04-07T06:31:18;92847.66;;;3.47;51.05
40592;BME280;26301;42.832;23.918;2023-04-07T06:33:45;92846.06;;;3.46;52.31
40592;BME280;26301;42.832;23.918;2023-04-07T06:36:11;92855.28;;;3.60;51.41
40592;BME280;26301;42.832;23.918;2023-04-07T06:38:37;92866.47;;;3.59;50.79
40592;BME280;26301;42.832;23.918;2023-04-07T06:41:03;92875.13;;;3.44;51.68
40592;BME280;26301;42.832;23.918;2023-04-07T06:43:29;92869.03;;;3.59;52.51
40592;BME280;26301;42.832;23.918;2023-04-07T06:45:55;92846.22;;;3.64;50.50
40592;BME280;26301;42.832;23.918;2023-04-07T06:48:22;92862.28;;;3.84;50.04
40592;BME280;26301;42.832;23.918;2023-04-07T06:50:50;92870.13;;;3.96;51.45
40592;BME280;26301;42.832;23.918;2023-04-07T06:53:16;92878.00;;;3.95;50.73
40592;BME280;26301;42.832;23.918;2023-04-07T06:55:42;92856.44;;;4.29;50.78
40592;BME280;26301;42.832;23.918;2023-04-07T06:58:07;92859.84;;;4.61;51.58
40592;BME280;26301;42.832;23.918;2023-04-07T07:00:33;92887.84;;;4.88;50.98
40592;BME280;26301;42.832;23.918;2023-04-07T07:03:00;92873.41;;;5.00;48.55
40592;BME280;26301;42.832;23.918;2023-04-07T07:05:25;92873.16;;;5.33;51.04
40592;BME280;26301;42.832;23.918;2023-04-07T07:07:51;92850.09;;;5.58;48.95
40592;BME280;26301;42.832;23.918;2023-04-07T07:10:17;92884.28;;;5.70;47.67
40592;BME280;26301;42.832;23.918;2023-04-07T07:12:42;92869.47;;;5.72;48.39
40592;BME280;26301;42.832;23.918;2023-04-07T07:15:08;92875.72;;;6.02;50.64
40592;BME280;26301;42.832;23.918;2023-04-07T07:17:34;92868.91;;;5.89;46.54
40592;BME280;26301;42.832;23.918;2023-04-07T07:19:59;92886.41;;;5.73;46.99
40592;BME280;26301;42.832;23.918;2023-04-07T07:22:25;92850.03;;;5.83;47.09
40592;BME280;26301;42.832;23.918;2023-04-07T07:24:51;92877.78;;;5.93;46.50
40592;BME280;26301;42.832;23.918;2023-04-07T07:27:16;92866.88;;;5.98;46.75
40592;BME280;26301;42.832;23.918;2023-04-07T07:29:42;92875.31;;;5.80;47.34
40592;BME280;26301;42.832;23.918;2023-04-07T07:32:07;92865.19;;;6.10;48.64
40592;BME280;26301;42.832;23.918;2023-04-07T07:34:33;92882.91;;;6.30;45.71
40592;BME280;26301;42.832;23.918;2023-04-07T07:36:59;92879.50;;;6.17;44.71
40592;BME280;26301;42.832;23.918;2023-04-07T07:39:25;92893.31;;;6.16;46.11
40592;BME280;26301;42.832;23.918;2023-04-07T07:41:50;92909.97;;;6.26;45.10
40592;BME280;26301;42.832;23.918;2023-04-07T07:44:16;92908.84;;;6.40;45.41
40592;BME280;26301;42.832;23.918;2023-04-07T07:46:44;92903.34;;;6.36;47.79
40592;BME280;26301;42.832;23.918;2023-04-07T07:49:10;92908.53;;;6.67;45.26
40592;BME280;26301;42.832;23.918;2023-04-07T07:51:36;92903.19;;;6.50;44.62
40592;BME280;26301;42.832;23.918;2023-04-07T07:54:02;92903.88;;;6.75;45.35
40592;BME280;26301;42.832;23.918;2023-04-07T07:56:28;92910.28;;;7.15;45.66
40592;BME280;26301;42.832;23.918;2023-04-07T07:58:53;92902.94;;;7.30;46.01
40592;BME280;26301;42.832;23.918;2023-04-07T08:01:19;92918.19;;;7.43;45.33
40592;BME280;26301;42.832;23.918;2023-04-07T08:03:45;92899.97;;;7.68;43.85
40592;BME280;26301;42.832;23.918;2023-04-07T08:06:10;92897.97;;;7.94;45.35
40592;BME280;26301;42.832;23.918;2023-04-07T08:08:37;92908.69;;;8.14;42.63
40592;BME280;26301;42.832;23.918;2023-04-07T08:11:03;92915.63;;;8.25;43.86
40592;BME280;26301;42.832;23.918;2023-04-07T08:13:28;92914.19;;;7.94;41.11
40592;BME280;26301;42.832;23.918;2023-04-07T08:15:54;92913.50;;;7.99;43.68
40592;BME280;26301;42.832;23.918;2023-04-07T08:18:20;92912.75;;;7.98;44.59
40592;BME280;26301;42.832;23.918;2023-04-07T08:20:45;92916.88;;;7.99;42.87
40592;BME280;26301;42.832;23.918;2023-04-07T08:23:11;92935.09;;;7.86;42.66
40592;BME280;26301;42.832;23.918;2023-04-07T08:25:37;92931.28;;;7.77;42.11
40592;BME280;26301;42.832;23.918;2023-04-07T08:28:05;92910.91;;;7.64;41.51
40592;BME280;26301;42.832;23.918;2023-04-07T08:30:31;92897.66;;;7.13;42.26
40592;BME280;26301;42.832;23.918;2023-04-07T08:32:56;92891.16;;;6.99;43.52
40592;BME280;26301;42.832;23.918;2023-04-07T08:35:22;92919.56;;;7.27;43.60
40592;BME280;26301;42.832;23.918;2023-04-07T08:37:47;92922.47;;;7.31;44.03
40592;BME280;26301;42.832;23.918;2023-04-07T08:40:14;92912.22;;;7.43;44.98
40592;BME280;26301;42.832;23.918;2023-04-07T08:42:47;92924.56;;;7.52;43.15
40592;BME280;26301;42.832;23.918;2023-04-07T08:45:16;92921.19;;;7.52;43.26
40592;BME280;26301;42.832;23.918;2023-04-07T08:47:43;92921.44;;;7.08;43.04
40592;BME280;26301;42.832;23.918;2023-04-07T08:50:11;92921.19;;;6.98;42.40
40592;BME280;26301;42.832;23.918;2023-04-07T08:52:52;92913.84;;;6.53;42.59
40592;BME280;26301;42.832;23.918;2023-04-07T08:55:18;92923.56;;;6.81;44.33
40592;BME280;26301;42.832;23.918;2023-04-07T08:57:45;92926.66;;;7.02;43.75
40592;BME280;26301;42.832;23.918;2023-04-07T09:00:11;92921.09;;;7.05;41.22
40592;BME280;26301;42.832;23.918;2023-04-07T09:02:40;92926.38;;;6.92;42.91
40592;BME280;26301;42.832;23.918;2023-04-07T09:05:09;92926.72;;;6.65;42.72
40592;BME280;26301;42.832;23.918;2023-04-07T09:07:36;92917.19;;;6.54;43.17
40592;BME280;26301;42.832;23.918;2023-04-07T09:10:03;92943.47;;;6.86;44.11
40592;BME280;26301;42.832;23.918;2023-04-07T09:12:30;92916.09;;;6.92;42.88
40592;BME280;26301;42.832;23.918;2023-04-07T09:14:56;92933.63;;;6.83;42.44
40592;BME280;26301;42.832;23.918;2023-04-07T09:17:21;92919.16;;;6.52;42.61
40592;BME280;26301;42.832;23.918;2023-04-07T09:19:50;92925.03;;;6.59;43.20
40592;BME280;26301;42.832;23.918;2023-04-07T09:22:39;92933.88;;;6.93;44.41
40592;BME280;26301;42.832;23.918;2023-04-07T09:27:35;92932.75;;;7.31;44.07
40592;BME280;26301;42.832;23.918;2023-04-07T09:30:13;92917.00;;;7.27;45.28
40592;BME280;26301;42.832;23.918;2023-04-07T09:32:39;92920.56;;;7.15;41.95
40592;BME280;26301;42.832;23.918;2023-04-07T09:35:06;92931.34;;;7.05;44.09
40592;BME280;26301;42.832;23.918;2023-04-07T09:37:32;92927.50;;;7.26;41.51
40592;BME280;26301;42.832;23.918;2023-04-07T09:39:57;92922.91;;;7.28;43.74
40592;BME280;26301;42.832;23.918;2023-04-07T09:42:23;92915.22;;;7.28;42.73
40592;BME280;26301;42.832;23.918;2023-04-07T09:44:50;92930.91;;;7.08;42.16
40592;BME280;26301;42.832;23.918;2023-04-07T09:47:16;92932.75;;;6.89;42.16
40592;BME280;26301;42.832;23.918;2023-04-07T09:49:51;92925.09;;;7.13;44.35
40592;BME280;26301;42.832;23.918;2023-04-07T09:52:18;92927.22;;;7.34;42.84
40592;BME280;26301;42.832;23.918;2023-04-07T09:54:48;92926.78;;;7.61;42.59
40592;BME280;26301;42.832;23.918;2023-04-07T09:57:13;92916.50;;;7.61;42.47
40592;BME280;26301;42.832;23.918;2023-04-07T09:59:41;92930.50;;;7.76;41.73
40592;BME280;26301;42.832;23.918;2023-04-07T10:02:08;92918.75;;;7.69;42.48
40592;BME280;26301;42.832;23.918;2023-04-07T10:04:34;92934.38;;;7.44;42.09
40592;BME280;26301;42.832;23.918;2023-04-07T10:07:01;92915.91;;;7.35;40.67
40592;BME280;26301;42.832;23.918;2023-04-07T10:09:29;92937.00;;;7.25;42.18
40592;BME280;26301;42.832;23.918;2023-04-07T10:11:56;92917.34;;;7.31;41.89
40592;BME280;26301;42.832;23.918;2023-04-07T10:14:26;92931.53;;;7.33;42.18
40592;BME280;26301;42.832;23.918;2023-04-07T10:16:52;92908.81;;;7.07;42.12
40592;BME280;26301;42.832;23.918;2023-04-07T10:19:19;92928.69;;;7.12;42.84
40592;BME280;26301;42.832;23.918;2023-04-07T10:21:47;92917.84;;;7.09;43.54
40592;BME280;26301;42.832;23.918;2023-04-07T10:24:45;92927.84;;;7.29;43.18
40592;BME280;26301;42.832;23.918;2023-04-07T10:27:19;92927.69;;;7.13;42.38
40592;BME280;26301;42.832;23.918;2023-04-07T10:29:48;92918.63;;;6.80;42.45
40592;BME280;26301;42.832;23.918;2023-04-07T10:32:14;92935.38;;;6.82;43.61
40592;BME280;26301;42.832;23.918;2023-04-07T10:37:13;92937.75;;;6.84;43.76
40592;BME280;26301;42.832;23.918;2023-04-07T10:39:42;92940.22;;;6.91;43.44
40592;BME280;26301;42.832;23.918;2023-04-07T10:45:02;92940.56;;;6.94;44.20
40592;BME280;26301;42.832;23.918;2023-04-07T10:47:29;92930.56;;;6.74;43.71
40592;BME280;26301;42.832;23.918;2023-04-07T10:50:21;92949.63;;;6.97;43.98
40592;BME280;26301;42.832;23.918;2023-04-07T10:53:03;92929.69;;;6.80;44.37
40592;BME280;26301;42.832;23.918;2023-04-07T10:55:37;92944.41;;;6.55;46.42
40592;BME280;26301;42.832;23.918;2023-04-07T10:58:14;92960.28;;;6.63;45.89
40592;BME280;26301;42.832;23.918;2023-04-07T11:00:40;92943.41;;;6.56;46.03
40592;BME280;26301;42.832;23.918;2023-04-07T11:03:10;92941.63;;;6.56;45.74
40592;BME280;26301;42.832;23.918;2023-04-07T11:05:38;92966.34;;;6.87;45.13
40592;BME280;26301;42.832;23.918;2023-04-07T11:08:04;92944.34;;;6.92;43.37
40592;BME280;26301;42.832;23.918;2023-04-07T11:10:31;92941.22;;;6.90;44.23
40592;BME280;26301;42.832;23.918;2023-04-07T11:13:05;92940.84;;;7.04;44.99
40592;BME280;26301;42.832;23.918;2023-04-07T11:15:32;92954.03;;;7.38;44.31
40592;BME280;26301;42.832;23.918;2023-04-07T11:20:55;92964.66;;;7.53;42.63
40592;BME280;26301;42.832;23.918;2023-04-07T11:23:24;92945.59;;;7.61;42.93
40592;BME280;26301;42.832;23.918;2023-04-07T11:25:53;92953.72;;;7.58;42.35
40592;BME280;26301;42.832;23.918;2023-04-07T11:28:25;92934.06;;;7.22;41.99
40592;BME280;26301;42.832;23.918;2023-04-07T11:30:52;92954.72;;;7.15;43.73
40592;BME280;26301;42.832;23.918;2023-04-07T11:33:26;92964.41;;;7.01;44.25
40592;BME280;26301;42.832;23.918;2023-04-07T11:35:54;92958.13;;;6.79;43.24
40592;BME280;26301;42.832;23.918;2023-04-07T11:38:23;92976.84;;;6.86;43.67
40592;BME280;26301;42.832;23.918;2023-04-07T11:40:49;92950.81;;;6.64;43.23
40592;BME280;26301;42.832;23.918;2023-04-07T11:43:16;92966.59;;;6.98;44.75
40592;BME280;26301;42.832;23.918;2023-04-07T11:45:43;92949.47;;;7.10;44.34
40592;BME280;26301;42.832;23.918;2023-04-07T11:48:32;92961.28;;;7.41;43.91
40592;BME280;26301;42.832;23.918;2023-04-07T11:50:59;92947.00;;;7.45;43.73
40592;BME280;26301;42.832;23.918;2023-04-07T11:53:30;92961.75;;;7.50;41.38
40592;BME280;26301;42.832;23.918;2023-04-07T11:56:11;92968.50;;;7.74;42.05
40592;BME280;26301;42.832;23.918;2023-04-07T11:58:51;92933.75;;;7.84;41.25
40592;BME280;26301;42.832;23.918;2023-04-07T12:01:18;92959.25;;;7.85;41.90
40592;BME280;26301;42.832;23.918;2023-04-07T12:04:00;92960.78;;;7.63;42.66
40592;BME280;26301;42.832;23.918;2023-04-07T12:06:34;92957.66;;;7.72;42.95
40592;BME280;26301;42.832;23.918;2023-04-07T12:09:06;92960.50;;;7.41;41.17
40592;BME280;26301;42.832;23.918;2023-04-07T12:11:32;92951.47;;;7.50;41.71
40592;BME280;26301;42.832;23.918;2023-04-07T12:13:59;92955.97;;;7.24;41.96
40592;BME280;26301;42.832;23.918;2023-04-07T12:16:25;92966.38;;;7.29;42.65
40592;BME280;26301;42.832;23.918;2023-04-07T12:18:51;92955.19;;;7.24;43.06
40592;BME280;26301;42.832;23.918;2023-04-07T12:21:17;92967.78;;;7.44;42.26
40592;BME280;26301;42.832;23.918;2023-04-07T12:23:43;92968.94;;;7.60;42.90
40592;BME280;26301;42.832;23.918;2023-04-07T12:26:09;92974.19;;;7.65;43.91
40592;BME280;26301;42.832;23.918;2023-04-07T12:28:36;92971.84;;;7.63;42.87
40592;BME280;26301;42.832;23.918;2023-04-07T12:31:02;92977.59;;;7.89;43.16
40592;BME280;26301;42.832;23.918;2023-04-07T12:33:28;92965.28;;;7.91;44.14
40592;BME280;26301;42.832;23.918;2023-04-07T12:35:54;92968.09;;;7.89;43.13
40592;BME280;26301;42.832;23.918;2023-04-07T12:38:20;92953.19;;;7.68;43.16
40592;BME280;26301;42.832;23.918;2023-04-07T12:40:46;92973.22;;;7.89;41.82
40592;BME280;26301;42.832;23.918;2023-04-07T12:43:11;92966.50;;;8.12;41.64
40592;BME280;26301;42.832;23.918;2023-04-07T12:45:37;92959.25;;;8.20;42.21
40592;BME280;26301;42.832;23.918;2023-04-07T12:48:02;92966.19;;;8.20;43.31
40592;BME280;26301;42.832;23.918;2023-04-07T12:50:28;92952.53;;;8.08;43.58
40592;BME280;26301;42.832;23.918;2023-04-07T12:52:54;92942.59;;;8.11;43.39
40592;BME280;26301;42.832;23.918;2023-04-07T12:55:21;92962.50;;;8.16;42.29
40592;BME280;26301;42.832;23.918;2023-04-07T12:57:46;92958.47;;;7.96;41.34
40592;BME280;26301;42.832;23.918;2023-04-07T13:00:13;92937.63;;;7.63;41.53
40592;BME280;26301;42.832;23.918;2023-04-07T13:02:39;92954.31;;;7.30;42.62
40592;BME280;26301;42.832;23.918;2023-04-07T13:05:06;92961.28;;;7.41;43.06
40592;BME280;26301;42.832;23.918;2023-04-07T13:07:32;92953.13;;;7.44;43.18
40592;BME280;26301;42.832;23.918;2023-04-07T13:10:00;92962.66;;;7.55;44.44
40592;BME280;26301;42.832;23.918;2023-04-07T13:12:26;92974.66;;;7.73;44.10
40592;BME280;26301;42.832;23.918;2023-04-07T13:14:52;92970.19;;;7.81;45.17
40592;BME280;26301;42.832;23.918;2023-04-07T13:17:18;92978.13;;;7.79;44.26
40592;BME280;26301;42.832;23.918;2023-04-07T13:19:43;92981.78;;;7.60;44.77